createdAt,value
2023-01-17T00:04:54.052Z,97011.13
2023-01-17T00:09:52.902Z,97007.56
2023-01-17T00:14:54.388Z,96992.31
2023-01-17T00:20:11.821Z,96985.88
2023-01-17T00:25:37.830Z,96985.72
2023-01-17T00:30:36.910Z,96994.84
2023-01-17T00:35:35.772Z,97002.59
2023-01-17T00:40:36.653Z,97000.34
2023-01-17T00:45:53.959Z,96992.19
2023-01-17T00:51:11.240Z,96990.56
2023-01-17T00:56:28.383Z,96999.06
2023-01-17T01:01:45.718Z,97015.75
2023-01-17T01:07:03.054Z,97008.00
2023-01-17T01:12:20.271Z,97012.72
2023-01-17T01:17:37.596Z,97008.50
2023-01-17T01:22:54.815Z,97018.06
2023-01-17T01:28:12.068Z,97003.91
2023-01-17T01:33:19.287Z,97009.34
2023-01-17T01:38:19.526Z,97010.94
2023-01-17T01:43:21.565Z,97012.28
2023-01-17T01:48:34.677Z,97013.88
2023-01-17T01:53:37.472Z,97008.59
2023-01-17T01:58:37.941Z,96998.59
2023-01-17T02:03:40.810Z,97006.09
2023-01-17T02:08:40.941Z,97011.88
2023-01-17T02:13:40.843Z,97002.94
2023-01-17T02:18:56.278Z,97010.31
2023-01-17T02:24:20.018Z,97009.16
2023-01-17T02:29:43.306Z,97004.56
2023-01-17T02:34:53.988Z,97010.81
2023-01-17T02:40:03.036Z,97017.72
2023-01-17T02:45:02.601Z,97021.28
2023-01-17T02:50:11.319Z,97017.69
2023-01-17T02:55:22.578Z,97024.53
2023-01-17T03:00:39.958Z,97037.09
2023-01-17T03:05:49.388Z,97042.97
2023-01-17T03:10:48.180Z,97035.53
2023-01-17T03:15:47.459Z,97054.41
2023-01-17T03:20:46.257Z,97056.75
2023-01-17T03:25:45.061Z,97060.53
2023-01-17T03:30:43.934Z,97068.66
2023-01-17T03:35:45.207Z,97081.50
2023-01-17T03:40:44.111Z,97085.34
2023-01-17T03:45:42.967Z,97088.38
2023-01-17T03:50:41.712Z,97089.66
2023-01-17T03:55:40.482Z,97091.97
2023-01-17T04:00:39.891Z,97112.53
2023-01-17T04:05:38.645Z,97116.66
2023-01-17T04:10:37.379Z,97120.97
2023-01-17T04:15:36.130Z,97132.38
2023-01-17T04:20:39.503Z,97126.13
2023-01-17T04:25:38.397Z,97141.06
2023-01-17T04:30:37.238Z,97136.09
2023-01-17T04:35:52.559Z,97148.88
2023-01-17T04:41:20.050Z,97157.06
2023-01-17T04:46:18.825Z,97173.53
2023-01-17T04:51:17.598Z,97175.53
2023-01-17T04:56:16.348Z,97183.97
2023-01-17T05:01:15.416Z,97187.72
2023-01-17T05:06:14.264Z,97192.59
2023-01-17T05:11:13.026Z,97206.66
2023-01-17T05:16:11.861Z,97203.59
2023-01-17T05:21:10.689Z,97215.31
2023-01-17T05:26:09.595Z,97213.53
2023-01-17T05:31:08.537Z,97219.22
2023-01-17T05:36:07.829Z,97214.84
2023-01-17T05:41:06.577Z,97217.97
2023-01-17T05:46:05.489Z,97233.47
2023-01-17T05:51:04.435Z,97223.47
2023-01-17T05:56:03.209Z,97228.00
2023-01-17T06:01:01.996Z,97239.66
2023-01-17T06:06:01.205Z,97250.19
2023-01-17T06:10:59.964Z,97253.41
2023-01-17T06:16:02.974Z,97267.03
2023-01-17T06:21:01.896Z,97287.22
2023-01-17T06:26:03.755Z,97283.22
2023-01-17T06:31:07.891Z,97283.78
2023-01-17T06:36:07.264Z,97279.28
2023-01-17T06:41:06.290Z,97283.78
2023-01-17T06:46:05.257Z,97287.59
2023-01-17T06:51:04.064Z,97290.16
2023-01-17T06:56:03.373Z,97296.31
2023-01-17T07:01:08.943Z,97310.69
2023-01-17T07:06:09.582Z,97309.38
2023-01-17T07:11:08.485Z,97338.75
2023-01-17T07:16:08.184Z,97342.63
2023-01-17T07:21:13.203Z,97342.19
2023-01-17T07:26:11.998Z,97346.28
2023-01-17T07:31:11.161Z,97342.06
2023-01-17T07:36:10.474Z,97356.03
2023-01-17T07:41:11.028Z,97357.84
2023-01-17T07:46:09.924Z,97370.19
2023-01-17T07:51:09.778Z,97366.72
2023-01-17T07:56:08.769Z,97365.66
2023-01-17T08:01:09.968Z,97372.88
2023-01-17T08:06:22.080Z,97372.13
2023-01-17T08:11:21.202Z,97370.94
2023-01-17T08:16:19.917Z,97372.75
2023-01-17T08:21:18.970Z,97378.78
2023-01-17T08:26:22.384Z,97390.34
2023-01-17T08:31:21.319Z,97390.97
2023-01-17T08:36:20.721Z,97398.25
2023-01-17T08:41:23.586Z,97415.06
2023-01-17T08:46:23.089Z,97429.59
2023-01-17T08:51:26.281Z,97421.00
2023-01-17T08:56:26.068Z,97432.16
2023-01-17T09:01:27.400Z,97427.78
2023-01-17T09:06:29.441Z,97435.34
2023-01-17T09:11:28.291Z,97440.09
2023-01-17T09:16:27.280Z,97436.78
2023-01-17T09:21:26.607Z,97456.75
2023-01-17T09:26:28.456Z,97453.53
2023-01-17T09:31:28.138Z,97450.84
2023-01-17T09:36:34.741Z,97462.31
2023-01-17T09:41:37.063Z,97463.91
2023-01-17T09:46:46.267Z,97462.56
2023-01-17T09:51:46.190Z,97469.72
2023-01-17T09:56:53.068Z,97471.50
2023-01-17T10:02:23.884Z,97478.84
2023-01-17T10:07:30.889Z,97481.69
2023-01-17T10:12:39.727Z,97474.13
2023-01-17T10:17:59.197Z,97472.69
2023-01-17T10:23:37.039Z,97481.28
2023-01-17T10:28:50.807Z,97473.84
2023-01-17T10:33:53.945Z,97489.91
2023-01-17T10:38:59.282Z,97491.41
2023-01-17T10:44:35.130Z,97517.34
2023-01-17T10:49:33.982Z,97524.50
2023-01-17T10:54:36.178Z,97514.81
2023-01-17T10:59:37.202Z,97519.19
2023-01-17T11:04:40.593Z,97534.47
2023-01-17T11:09:41.942Z,97523.16
2023-01-17T11:14:40.680Z,97526.72
2023-01-17T11:19:40.527Z,97513.56
2023-01-17T11:24:54.977Z,97513.50
2023-01-17T11:30:18.461Z,97511.25
2023-01-17T11:35:20.027Z,97523.00
2023-01-17T11:40:33.547Z,97511.88
2023-01-17T11:45:34.603Z,97506.72
2023-01-17T11:50:34.950Z,97513.34
2023-01-17T11:55:33.731Z,97511.50
2023-01-17T12:00:46.196Z,97518.22
2023-01-17T12:06:23.655Z,97511.97
2023-01-17T12:11:32.092Z,97515.06
2023-01-17T12:16:52.553Z,97511.66
2023-01-17T12:21:58.323Z,97506.50
2023-01-17T12:26:57.070Z,97509.47
2023-01-17T12:32:21.940Z,97508.56
2023-01-17T12:37:41.379Z,97508.41
2023-01-17T12:43:03.896Z,97513.44
2023-01-17T12:48:10.284Z,97506.03
2023-01-17T12:53:47.708Z,97502.63
2023-01-17T12:58:52.224Z,97494.34
2023-01-17T13:04:16.092Z,97501.03
2023-01-17T13:09:19.156Z,97501.47
2023-01-17T13:14:18.129Z,97509.66
2023-01-17T13:19:25.980Z,97520.47
2023-01-17T13:24:43.663Z,97529.84
2023-01-17T13:30:17.721Z,97540.47
2023-01-17T13:35:26.761Z,97542.38
2023-01-17T13:40:45.040Z,97541.75
2023-01-17T13:45:55.881Z,97544.25
2023-01-17T13:51:02.714Z,97553.47
2023-01-17T13:56:27.900Z,97553.19
2023-01-17T14:01:34.722Z,97560.78
2023-01-17T14:06:36.441Z,97565.25
2023-01-17T14:11:57.757Z,97571.25
2023-01-17T14:17:28.277Z,97562.00
2023-01-17T14:22:30.050Z,97559.88
2023-01-17T14:27:34.646Z,97555.16
2023-01-17T14:32:37.361Z,97563.31
2023-01-17T14:37:46.920Z,97556.88
2023-01-17T14:42:48.442Z,97575.06
2023-01-17T14:47:47.328Z,97587.16
2023-01-17T14:52:46.395Z,97583.41
2023-01-17T14:57:58.040Z,97578.28
2023-01-17T15:02:59.417Z,97579.03
2023-01-17T15:07:59.149Z,97584.44
2023-01-17T15:13:05.551Z,97590.34
2023-01-17T15:18:13.536Z,97587.00
2023-01-17T15:23:19.335Z,97597.75
2023-01-17T15:28:18.700Z,97610.38
2023-01-17T15:33:21.104Z,97606.09
2023-01-17T15:38:19.870Z,97603.91
2023-01-17T15:43:31.770Z,97605.28
2023-01-17T15:48:44.918Z,97612.28
2023-01-17T15:53:45.183Z,97612.75
2023-01-17T15:58:44.033Z,97614.13
2023-01-17T16:03:54.646Z,97604.22
2023-01-17T16:08:54.604Z,97598.03
2023-01-17T16:13:54.040Z,97608.78
2023-01-17T16:19:02.264Z,97613.31
2023-01-17T16:24:02.927Z,97609.63
2023-01-17T16:29:01.698Z,97606.41
2023-01-17T16:34:00.754Z,97615.22
2023-01-17T16:38:59.640Z,97612.28
2023-01-17T16:44:01.213Z,97611.72
2023-01-17T16:49:01.310Z,97601.78
2023-01-17T16:54:01.102Z,97599.09
2023-01-17T16:58:59.870Z,97602.44
2023-01-17T17:03:58.583Z,97601.31
2023-01-17T17:08:59.509Z,97587.69
2023-01-17T17:13:58.206Z,97593.00
2023-01-17T17:19:01.561Z,97583.75
2023-01-17T17:24:01.569Z,97580.53
2023-01-17T17:29:00.558Z,97584.84
2023-01-17T17:34:01.086Z,97602.13
2023-01-17T17:39:01.910Z,97616.81
2023-01-17T17:44:02.085Z,97613.25
2023-01-17T17:49:01.565Z,97623.59
2023-01-17T17:54:05.751Z,97613.84
2023-01-17T17:59:06.729Z,97614.28
2023-01-17T18:04:07.564Z,97611.28
2023-01-17T18:09:08.530Z,97620.38
2023-01-17T18:14:10.595Z,97625.56
2023-01-17T18:19:21.281Z,97626.75
2023-01-17T18:24:22.389Z,97630.78
2023-01-17T18:29:22.485Z,97622.13
2023-01-17T18:34:29.209Z,97629.78
2023-01-17T18:39:29.847Z,97625.84
2023-01-17T18:44:29.751Z,97616.59
2023-01-17T18:49:29.049Z,97634.53
2023-01-17T18:54:28.340Z,97628.34
2023-01-17T18:59:27.141Z,97625.81
2023-01-17T19:04:28.542Z,97638.59
2023-01-17T19:09:27.406Z,97646.22
2023-01-17T19:14:29.137Z,97627.44
2023-01-17T19:19:27.865Z,97643.56
2023-01-17T19:24:26.840Z,97640.63
2023-01-17T19:29:26.858Z,97649.94
2023-01-17T19:34:25.693Z,97655.22
2023-01-17T19:39:27.135Z,97649.66
2023-01-17T19:44:25.893Z,97661.91
2023-01-17T19:49:24.733Z,97659.75
2023-01-17T19:54:23.566Z,97660.03
2023-01-17T19:59:22.669Z,97668.16
2023-01-17T20:04:21.411Z,97676.28
2023-01-17T20:09:20.361Z,97678.94
2023-01-17T20:14:19.171Z,97683.69
2023-01-17T20:19:17.931Z,97694.06
2023-01-17T20:24:16.938Z,97693.94
2023-01-17T20:29:17.768Z,97709.19
2023-01-17T20:34:19.575Z,97708.41
2023-01-17T20:39:19.594Z,97706.84
2023-01-17T20:44:19.604Z,97717.16
2023-01-17T20:49:19.476Z,97721.72
2023-01-17T20:54:19.461Z,97721.41
2023-01-17T20:59:21.623Z,97714.00
2023-01-17T21:04:25.849Z,97705.94
2023-01-17T21:09:24.791Z,97708.16
2023-01-17T21:14:23.667Z,97707.31
2023-01-17T21:19:25.113Z,97710.19
2023-01-17T21:24:24.154Z,97711.16
2023-01-17T21:29:28.729Z,97714.66
2023-01-17T21:34:28.025Z,97706.53
2023-01-17T21:39:29.207Z,97709.00
2023-01-17T21:44:28.087Z,97707.25
2023-01-17T21:49:26.831Z,97709.59
2023-01-17T21:54:48.312Z,97702.81
2023-01-17T21:59:46.995Z,97702.22
2023-01-17T22:04:45.695Z,97693.19
2023-01-17T22:09:44.545Z,97687.31
2023-01-17T22:14:43.297Z,97677.84
2023-01-17T22:19:42.148Z,97675.88
2023-01-17T22:24:40.964Z,97668.19
2023-01-17T22:29:39.848Z,97661.97
2023-01-17T22:34:38.833Z,97669.28
2023-01-17T22:39:38.576Z,97667.47
2023-01-17T22:44:37.440Z,97657.16
2023-01-17T22:49:36.308Z,97649.56
2023-01-17T22:54:35.045Z,97642.44
2023-01-17T22:59:34.097Z,97636.81
2023-01-17T23:04:32.961Z,97636.06
2023-01-17T23:09:32.151Z,97618.84
2023-01-17T23:14:30.865Z,97622.75
2023-01-17T23:19:36.227Z,97613.78
2023-01-17T23:24:35.784Z,97602.06
2023-01-17T23:29:34.563Z,97609.16
2023-01-17T23:34:33.276Z,97611.84
2023-01-17T23:39:32.019Z,97614.28
2023-01-17T23:44:32.019Z,97607.41
2023-01-17T23:49:31.476Z,97604.13
2023-01-17T23:54:32.088Z,97606.47
2023-01-17T23:59:30.983Z,97613.50
